sensor_id;sensor_type;location;lat;lon;timestamp;pressure;altitude;pressure_sealevel;temperature;humidity
55171;BME280;41060;47.510;8.680;2023-01-25T00:00:21;98324.56;;;5.15;50.06
55171;BME280;41060;47.510;8.680;2023-01-25T00:02:48;98467.03;;;6.12;49.70
55171;BME280;41060;47.510;8.680;2023-01-25T00:05:15;98469.28;;;6.21;49.43
55171;BME280;41060;47.510;8.680;2023-01-25T00:07:42;98323.41;;;5.22;50.12
55171;BME280;41060;47.510;8.680;2023-01-25T00:10:09;98462.78;;;6.09;49.84
55171;BME280;41060;47.510;8.680;2023-01-25T00:12:38;98469.09;;;6.03;50.02
55171;BME280;41060;47.510;8.680;2023-01-25T00:15:05;98456.22;;;5.97;49.99
55171;BME280;41060;47.510;8.680;2023-01-25T00:17:32;98404.56;;;5.73;49.84
55171;BME280;41060;47.510;8.680;2023-01-25T00:19:59;98460.81;;;6.14;49.58
55171;BME280;41060;47.510;8.680;2023-01-25T00:22:26;98460.19;;;6.29;49.37
55171;BME280;41060;47.510;8.680;2023-01-25T00:24:54;98415.25;;;5.92;49.50
55171;BME280;41060;47.510;8.680;2023-01-25T00:27:22;98266.72;;;4.95;49.39
55171;BME280;41060;47.510;8.680;2023-01-25T00:29:49;98462.88;;;6.06;50.15
55171;BME280;41060;47.510;8.680;2023-01-25T00:32:36;98361.75;;;5.49;50.00
55171;BME280;41060;47.510;8.680;2023-01-25T00:35:10;98454.34;;;6.01;50.05
55171;BME280;41060;47.510;8.680;2023-01-25T00:37:38;98359.63;;;5.36;50.15
55171;BME280;41060;47.510;8.680;2023-01-25T00:40:09;98426.34;;;5.77;50.53
55171;BME280;41060;47.510;8.680;2023-01-25T00:42:36;98442.09;;;5.55;51.28
55171;BME280;41060;47.510;8.680;2023-01-25T00:45:04;98443.47;;;5.65;50.93
55171;BME280;41060;47.510;8.680;2023-01-25T00:47:32;98436.84;;;5.77;50.82
55171;BME280;41060;47.510;8.680;2023-01-25T00:49:58;98368.69;;;5.50;50.56
55171;BME280;41060;47.510;8.680;2023-01-25T00:52:25;98252.06;;;4.67;50.35
55171;BME280;41060;47.510;8.680;2023-01-25T00:54:53;98424.97;;;5.66;50.97
55171;BME280;41060;47.510;8.680;2023-01-25T00:57:20;98415.19;;;5.48;51.54
55171;BME280;41060;47.510;8.680;2023-01-25T00:59:46;98418.50;;;5.75;50.47
55171;BME280;41060;47.510;8.680;2023-01-25T01:02:15;98415.09;;;5.95;50.02
55171;BME280;41060;47.510;8.680;2023-01-25T01:04:41;98426.25;;;6.01;49.69
55171;BME280;41060;47.510;8.680;2023-01-25T01:07:10;98388.63;;;5.78;49.72
55171;BME280;41060;47.510;8.680;2023-01-25T01:09:38;98418.53;;;5.97;49.67
55171;BME280;41060;47.510;8.680;2023-01-25T01:12:05;98379.94;;;5.76;49.59
55171;BME280;41060;47.510;8.680;2023-01-25T01:14:31;98432.38;;;6.02;49.74
55171;BME280;41060;47.510;8.680;2023-01-25T01:16:58;98397.69;;;5.71;49.96
55171;BME280;41060;47.510;8.680;2023-01-25T01:19:26;98426.34;;;5.77;50.07
55171;BME280;41060;47.510;8.680;2023-01-25T01:21:53;98424.41;;;5.82;50.21
55171;BME280;41060;47.510;8.680;2023-01-25T01:24:20;98423.13;;;5.92;50.29
55171;BME280;41060;47.510;8.680;2023-01-25T01:26:47;98395.72;;;5.76;50.52
55171;BME280;41060;47.510;8.680;2023-01-25T01:29:13;98346.44;;;5.59;50.09
55171;BME280;41060;47.510;8.680;2023-01-25T01:31:40;98433.84;;;6.09;49.82
55171;BME280;41060;47.510;8.680;2023-01-25T01:34:11;98382.69;;;5.73;50.16
55171;BME280;41060;47.510;8.680;2023-01-25T01:36:39;98386.88;;;5.56;50.64
55171;BME280;41060;47.510;8.680;2023-01-25T01:39:07;98432.84;;;5.90;50.51
55171;BME280;41060;47.510;8.680;2023-01-25T01:41:34;98414.75;;;5.82;50.44
55171;BME280;41060;47.510;8.680;2023-01-25T01:44:01;98436.88;;;5.98;50.11
55171;BME280;41060;47.510;8.680;2023-01-25T01:46:31;98409.75;;;5.98;49.92
55171;BME280;41060;47.510;8.680;2023-01-25T01:49:00;98435.53;;;6.10;49.91
55171;BME280;41060;47.510;8.680;2023-01-25T01:51:39;98431.75;;;5.95;50.38
55171;BME280;41060;47.510;8.680;2023-01-25T01:54:11;98241.19;;;4.76;50.14
55171;BME280;41060;47.510;8.680;2023-01-25T01:56:44;98426.38;;;5.98;49.94
55171;BME280;41060;47.510;8.680;2023-01-25T01:59:12;98416.78;;;5.97;49.92
55171;BME280;41060;47.510;8.680;2023-01-25T02:01:42;98200.44;;;4.68;49.92
55171;BME280;41060;47.510;8.680;2023-01-25T02:04:10;98417.56;;;5.99;50.21
55171;BME280;41060;47.510;8.680;2023-01-25T02:06:46;98421.72;;;6.05;50.06
55171;BME280;41060;47.510;8.680;2023-01-25T02:09:15;98416.34;;;6.08;50.09
55171;BME280;41060;47.510;8.680;2023-01-25T02:11:44;98422.47;;;6.09;49.97
55171;BME280;41060;47.510;8.680;2023-01-25T02:14:13;98329.66;;;5.41;50.13
55171;BME280;41060;47.510;8.680;2023-01-25T02:16:40;98324.41;;;5.19;51.13
55171;BME280;41060;47.510;8.680;2023-01-25T02:19:12;98248.72;;;4.85;50.85
55171;BME280;41060;47.510;8.680;2023-01-25T02:21:44;98417.81;;;5.93;50.54
55171;BME280;41060;47.510;8.680;2023-01-25T02:24:17;98416.41;;;5.85;51.14
55171;BME280;41060;47.510;8.680;2023-01-25T02:26:47;98359.44;;;5.63;51.11
55171;BME280;41060;47.510;8.680;2023-01-25T02:29:15;98410.47;;;5.80;51.19
55171;BME280;41060;47.510;8.680;2023-01-25T02:31:44;98418.09;;;5.87;51.08
55171;BME280;41060;47.510;8.680;2023-01-25T02:34:10;98369.06;;;5.63;51.01
55171;BME280;41060;47.510;8.680;2023-01-25T02:36:37;98358.97;;;5.52;50.99
55171;BME280;41060;47.510;8.680;2023-01-25T02:39:08;98407.09;;;5.76;51.33
55171;BME280;41060;47.510;8.680;2023-01-25T02:41:37;98355.09;;;5.41;51.60
55171;BME280;41060;47.510;8.680;2023-01-25T02:44:08;98386.41;;;5.67;51.56
55171;BME280;41060;47.510;8.680;2023-01-25T02:46:36;98275.16;;;5.03;51.47
55171;BME280;41060;47.510;8.680;2023-01-25T02:49:05;98300.56;;;5.24;51.23
55171;BME280;41060;47.510;8.680;2023-01-25T02:51:34;98240.25;;;5.01;50.98
55171;BME280;41060;47.510;8.680;2023-01-25T02:54:02;98208.72;;;4.79;50.95
55171;BME280;41060;47.510;8.680;2023-01-25T02:56:29;98402.47;;;5.83;51.65
55171;BME280;41060;47.510;8.680;2023-01-25T02:58:57;98254.81;;;4.86;51.56
55171;BME280;41060;47.510;8.680;2023-01-25T03:01:25;98404.56;;;5.73;52.06
55171;BME280;41060;47.510;8.680;2023-01-25T03:03:51;98322.09;;;5.34;51.80
55171;BME280;41060;47.510;8.680;2023-01-25T03:06:18;98287.03;;;5.13;51.53
55171;BME280;41060;47.510;8.680;2023-01-25T03:08:45;98391.63;;;5.68;52.35
55171;BME280;41060;47.510;8.680;2023-01-25T03:11:12;98363.28;;;5.55;52.11
55171;BME280;41060;47.510;8.680;2023-01-25T03:13:39;98384.72;;;5.88;51.86
55171;BME280;41060;47.510;8.680;2023-01-25T03:16:08;98388.72;;;5.98;51.50
55171;BME280;41060;47.510;8.680;2023-01-25T03:18:36;98187.56;;;4.83;50.99
55171;BME280;41060;47.510;8.680;2023-01-25T03:21:05;98376.38;;;6.00;51.02
55171;BME280;41060;47.510;8.680;2023-01-25T03:23:32;98323.41;;;5.65;50.96
55171;BME280;41060;47.510;8.680;2023-01-25T03:26:07;98375.63;;;5.96;51.18
55171;BME280;41060;47.510;8.680;2023-01-25T03:28:36;98384.00;;;5.84;51.59
55171;BME280;41060;47.510;8.680;2023-01-25T03:31:03;98381.00;;;5.72;51.92
55171;BME280;41060;47.510;8.680;2023-01-25T03:33:30;98283.34;;;4.95;52.26
55171;BME280;41060;47.510;8.680;2023-01-25T03:35:59;98384.69;;;5.44;52.68
55171;BME280;41060;47.510;8.680;2023-01-25T03:38:26;98373.63;;;5.58;52.75
55171;BME280;41060;47.510;8.680;2023-01-25T03:40:53;98279.50;;;5.04;52.62
55171;BME280;41060;47.510;8.680;2023-01-25T03:43:20;98365.03;;;5.54;53.07
55171;BME280;41060;47.510;8.680;2023-01-25T03:45:50;98364.13;;;5.55;52.88
55171;BME280;41060;47.510;8.680;2023-01-25T03:48:17;98320.56;;;5.28;52.57
55171;BME280;41060;47.510;8.680;2023-01-25T03:50:48;98255.19;;;4.99;52.85
55171;BME280;41060;47.510;8.680;2023-01-25T03:53:16;98276.75;;;5.28;52.03
55171;BME280;41060;47.510;8.680;2023-01-25T03:55:53;98319.88;;;5.66;51.80
55171;BME280;41060;47.510;8.680;2023-01-25T03:58:20;98161.44;;;4.59;52.12
55171;BME280;41060;47.510;8.680;2023-01-25T04:00:47;98353.06;;;5.47;52.56
55171;BME280;41060;47.510;8.680;2023-01-25T04:03:14;98282.47;;;4.95;53.03
55171;BME280;41060;47.510;8.680;2023-01-25T04:05:42;98298.06;;;5.21;52.50
55171;BME280;41060;47.510;8.680;2023-01-25T04:08:08;98346.91;;;5.48;52.86
55171;BME280;41060;47.510;8.680;2023-01-25T04:10:37;98275.72;;;5.11;52.71
55171;BME280;41060;47.510;8.680;2023-01-25T04:13:03;98294.41;;;5.25;52.61
55171;BME280;41060;47.510;8.680;2023-01-25T04:15:30;98247.41;;;4.97;52.69
55171;BME280;41060;47.510;8.680;2023-01-25T04:17:57;98291.72;;;5.05;52.67
55171;BME280;41060;47.510;8.680;2023-01-25T04:20:23;98307.59;;;5.45;52.31
55171;BME280;41060;47.510;8.680;2023-01-25T04:22:50;98341.44;;;5.75;52.00
55171;BME280;41060;47.510;8.680;2023-01-25T04:25:17;98340.84;;;5.90;51.23
55171;BME280;41060;47.510;8.680;2023-01-25T04:27:45;98293.25;;;5.54;63.32
55171;BME280;41060;47.510;8.680;2023-01-25T04:30:12;98224.34;;;5.67;53.52
55171;BME280;41060;47.510;8.680;2023-01-25T04:32:39;98328.00;;;6.44;51.13
55171;BME280;41060;47.510;8.680;2023-01-25T04:35:06;98278.00;;;6.04;50.62
55171;BME280;41060;47.510;8.680;2023-01-25T04:37:33;98323.91;;;6.17;50.61
55171;BME280;41060;47.510;8.680;2023-01-25T04:40:00;98325.59;;;6.18;50.75
55171;BME280;41060;47.510;8.680;2023-01-25T04:42:29;98329.41;;;6.11;50.65
55171;BME280;41060;47.510;8.680;2023-01-25T04:44:57;98325.41;;;6.02;50.72
55171;BME280;41060;47.510;8.680;2023-01-25T04:47:24;98164.25;;;4.98;51.13
55171;BME280;41060;47.510;8.680;2023-01-25T04:49:50;98331.72;;;5.98;51.07
55171;BME280;41060;47.510;8.680;2023-01-25T04:52:17;98243.28;;;5.55;50.65
55171;BME280;41060;47.510;8.680;2023-01-25T04:54:44;98331.41;;;6.06;50.58
55171;BME280;41060;47.510;8.680;2023-01-25T04:57:10;98332.91;;;6.12;50.61
55171;BME280;41060;47.510;8.680;2023-01-25T04:59:38;98316.06;;;5.95;50.86
55171;BME280;41060;47.510;8.680;2023-01-25T05:02:06;98275.78;;;5.73;50.64
55171;BME280;41060;47.510;8.680;2023-01-25T05:04:33;98326.25;;;6.03;50.59
55171;BME280;41060;47.510;8.680;2023-01-25T05:06:59;98328.69;;;5.87;51.00
55171;BME280;41060;47.510;8.680;2023-01-25T05:09:27;98332.69;;;5.74;51.51
55171;BME280;41060;47.510;8.680;2023-01-25T05:11:53;98143.63;;;4.67;51.01
55171;BME280;41060;47.510;8.680;2023-01-25T05:14:20;98324.34;;;5.64;51.22
55171;BME280;41060;47.510;8.680;2023-01-25T05:16:47;98317.53;;;5.59;51.39
55171;BME280;41060;47.510;8.680;2023-01-25T05:19:15;98198.91;;;4.84;51.10
55171;BME280;41060;47.510;8.680;2023-01-25T05:21:41;98319.38;;;5.79;50.85
55171;BME280;41060;47.510;8.680;2023-01-25T05:24:24;98321.28;;;5.75;51.10
55171;BME280;41060;47.510;8.680;2023-01-25T05:26:52;98288.91;;;5.53;50.90
55171;BME280;41060;47.510;8.680;2023-01-25T05:29:32;98277.53;;;5.52;50.69
55171;BME280;41060;47.510;8.680;2023-01-25T05:32:01;98324.25;;;5.66;51.10
55171;BME280;41060;47.510;8.680;2023-01-25T05:34:29;98177.59;;;4.70;51.09
55171;BME280;41060;47.510;8.680;2023-01-25T05:36:57;98308.91;;;5.57;50.79
55171;BME280;41060;47.510;8.680;2023-01-25T05:39:24;98268.03;;;5.28;50.51
55171;BME280;41060;47.510;8.680;2023-01-25T05:41:51;98307.53;;;5.68;50.60
55171;BME280;41060;47.510;8.680;2023-01-25T05:44:18;98319.38;;;5.79;50.32
55171;BME280;41060;47.510;8.680;2023-01-25T05:46:44;98282.72;;;5.54;50.19
55171;BME280;41060;47.510;8.680;2023-01-25T05:49:11;98324.75;;;5.76;50.63
55171;BME280;41060;47.510;8.680;2023-01-25T05:51:40;98246.94;;;5.29;50.39
55171;BME280;41060;47.510;8.680;2023-01-25T05:54:10;98125.31;;;4.65;50.41
55171;BME280;41060;47.510;8.680;2023-01-25T05:56:38;98318.28;;;5.62;50.48
55171;BME280;41060;47.510;8.680;2023-01-25T05:59:05;98133.59;;;4.55;50.70
55171;BME280;41060;47.510;8.680;2023-01-25T06:01:31;98213.63;;;4.88;50.83
55171;BME280;41060;47.510;8.680;2023-01-25T06:03:59;98203.50;;;5.01;50.25
55171;BME280;41060;47.510;8.680;2023-01-25T06:06:27;98135.25;;;4.57;50.24
55171;BME280;41060;47.510;8.680;2023-01-25T06:08:55;98282.38;;;5.41;50.70
55171;BME280;41060;47.510;8.680;2023-01-25T06:11:23;98210.84;;;4.91;50.55
55171;BME280;41060;47.510;8.680;2023-01-25T06:13:50;98320.72;;;5.67;50.50
55171;BME280;41060;47.510;8.680;2023-01-25T06:16:17;98322.00;;;5.79;50.40
55171;BME280;41060;47.510;8.680;2023-01-25T06:18:45;98285.78;;;5.65;50.06
55171;BME280;41060;47.510;8.680;2023-01-25T06:21:11;98319.63;;;5.94;49.92
55171;BME280;41060;47.510;8.680;2023-01-25T06:23:38;98322.50;;;5.88;49.97
55171;BME280;41060;47.510;8.680;2023-01-25T06:26:09;98320.06;;;5.84;50.34
55171;BME280;41060;47.510;8.680;2023-01-25T06:28:37;98309.56;;;5.84;49.91
55171;BME280;41060;47.510;8.680;2023-01-25T06:31:06;98234.31;;;5.17;50.37
55171;BME280;41060;47.510;8.680;2023-01-25T06:33:34;98262.47;;;5.57;49.77
55171;BME280;41060;47.510;8.680;2023-01-25T06:36:01;98215.44;;;5.29;49.87
55171;BME280;41060;47.510;8.680;2023-01-25T06:38:32;98311.66;;;5.96;49.68
55171;BME280;41060;47.510;8.680;2023-01-25T06:40:59;98309.25;;;5.91;49.73
55171;BME280;41060;47.510;8.680;2023-01-25T06:43:28;98266.59;;;5.63;49.58
55171;BME280;41060;47.510;8.680;2023-01-25T06:45:59;98305.16;;;5.84;49.95
55171;BME280;41060;47.510;8.680;2023-01-25T06:48:26;98305.16;;;5.84;49.79
55171;BME280;41060;47.510;8.680;2023-01-25T06:50:54;98296.34;;;5.85;49.77
55171;BME280;41060;47.510;8.680;2023-01-25T06:53:23;98286.88;;;5.81;49.46
55171;BME280;41060;47.510;8.680;2023-01-25T06:55:56;98301.03;;;5.77;49.81
55171;BME280;41060;47.510;8.680;2023-01-25T06:58:23;98250.34;;;5.53;49.83
55171;BME280;41060;47.510;8.680;2023-01-25T07:00:51;98296.81;;;5.95;49.51
55171;BME280;41060;47.510;8.680;2023-01-25T07:03:18;98303.19;;;5.89;49.55
55171;BME280;41060;47.510;8.680;2023-01-25T07:05:45;98120.72;;;4.70;49.60
55171;BME280;41060;47.510;8.680;2023-01-25T07:08:13;98173.91;;;4.97;50.22
55171;BME280;41060;47.510;8.680;2023-01-25T07:10:40;98299.00;;;5.63;50.49
55171;BME280;41060;47.510;8.680;2023-01-25T07:13:07;98208.97;;;4.95;50.43
55171;BME280;41060;47.510;8.680;2023-01-25T07:15:34;98227.56;;;5.12;50.77
55171;BME280;41060;47.510;8.680;2023-01-25T07:18:01;97887.31;;;2.96;50.58
55171;BME280;41060;47.510;8.680;2023-01-25T07:20:29;98299.72;;;5.45;50.71
55171;BME280;41060;47.510;8.680;2023-01-25T07:22:55;98301.00;;;5.57;50.54
55171;BME280;41060;47.510;8.680;2023-01-25T07:25:22;98295.44;;;5.64;50.15
55171;BME280;41060;47.510;8.680;2023-01-25T07:27:49;98298.25;;;5.60;50.53
55171;BME280;41060;47.510;8.680;2023-01-25T07:30:16;98299.34;;;5.54;50.43
55171;BME280;41060;47.510;8.680;2023-01-25T07:32:45;98289.09;;;5.48;50.46
55171;BME280;41060;47.510;8.680;2023-01-25T07:35:14;98295.69;;;5.37;50.89
55171;BME280;41060;47.510;8.680;2023-01-25T07:37:41;98270.22;;;5.17;51.00
55171;BME280;41060;47.510;8.680;2023-01-25T07:40:08;98294.13;;;5.33;50.72
55171;BME280;41060;47.510;8.680;2023-01-25T07:42:36;98295.13;;;5.50;50.62
55171;BME280;41060;47.510;8.680;2023-01-25T07:45:03;98288.03;;;5.52;50.75
55171;BME280;41060;47.510;8.680;2023-01-25T07:47:29;98292.19;;;5.58;50.34
55171;BME280;41060;47.510;8.680;2023-01-25T07:49:56;98292.03;;;5.62;49.89
55171;BME280;41060;47.510;8.680;2023-01-25T07:52:25;98289.44;;;5.61;50.20
55171;BME280;41060;47.510;8.680;2023-01-25T07:54:51;98293.59;;;5.66;50.24
55171;BME280;41060;47.510;8.680;2023-01-25T07:57:19;98290.97;;;5.66;49.71
55171;BME280;41060;47.510;8.680;2023-01-25T07:59:45;98289.72;;;5.75;49.78
55171;BME280;41060;47.510;8.680;2023-01-25T08:02:12;98291.91;;;5.87;49.52
55171;BME280;41060;47.510;8.680;2023-01-25T08:04:39;98285.22;;;5.79;49.77
55171;BME280;41060;47.510;8.680;2023-01-25T08:07:07;98286.69;;;5.86;49.50
55171;BME280;41060;47.510;8.680;2023-01-25T08:09:35;98286.38;;;5.72;49.46
55171;BME280;41060;47.510;8.680;2023-01-25T08:12:06;98286.13;;;5.78;49.33
55171;BME280;41060;47.510;8.680;2023-01-25T08:14:33;98279.78;;;5.61;50.12
55171;BME280;41060;47.510;8.680;2023-01-25T08:17:00;98281.50;;;5.62;50.08
55171;BME280;41060;47.510;8.680;2023-01-25T08:19:27;98281.25;;;5.68;49.91
55171;BME280;41060;47.510;8.680;2023-01-25T08:21:57;98280.59;;;5.85;49.78
55171;BME280;41060;47.510;8.680;2023-01-25T08:24:23;98251.69;;;5.63;49.19
55171;BME280;41060;47.510;8.680;2023-01-25T08:26:52;98273.97;;;5.75;49.41
55171;BME280;41060;47.510;8.680;2023-01-25T08:29:18;98227.75;;;5.49;49.32
55171;BME280;41060;47.510;8.680;2023-01-25T08:31:45;98275.38;;;5.84;49.17
55171;BME280;41060;47.510;8.680;2023-01-25T08:34:15;98216.66;;;5.21;49.57
55171;BME280;41060;47.510;8.680;2023-01-25T08:36:41;98156.84;;;4.85;49.85
55171;BME280;41060;47.510;8.680;2023-01-25T08:39:09;98248.25;;;5.41;49.80
55171;BME280;41060;47.510;8.680;2023-01-25T08:41:37;98273.16;;;5.73;49.54
55171;BME280;41060;47.510;8.680;2023-01-25T08:44:05;98265.75;;;5.62;49.88
55171;BME280;41060;47.510;8.680;2023-01-25T08:46:32;98266.66;;;5.61;49.59
55171;BME280;41060;47.510;8.680;2023-01-25T08:49:00;98264.81;;;5.63;49.82
55171;BME280;41060;47.510;8.680;2023-01-25T08:51:28;98226.63;;;5.35;49.83
55171;BME280;41060;47.510;8.680;2023-01-25T08:53:56;98254.63;;;5.56;49.48
55171;BME280;41060;47.510;8.680;2023-01-25T08:56:23;98258.22;;;5.53;49.16
55171;BME280;41060;47.510;8.680;2023-01-25T08:58:49;98101.50;;;4.70;49.50
55171;BME280;41060;47.510;8.680;2023-01-25T09:01:18;98213.84;;;5.47;49.54
55171;BME280;41060;47.510;8.680;2023-01-25T09:03:47;98209.88;;;5.37;49.47
55171;BME280;41060;47.510;8.680;2023-01-25T09:06:15;98227.34;;;5.58;49.53
55171;BME280;41060;47.510;8.680;2023-01-25T09:08:42;98112.66;;;4.97;49.14
55171;BME280;41060;47.510;8.680;2023-01-25T09:11:12;98236.88;;;5.83;49.39
55171;BME280;41060;47.510;8.680;2023-01-25T09:13:39;98228.88;;;5.86;49.10
55171;BME280;41060;47.510;8.680;2023-01-25T09:16:09;98228.47;;;5.73;49.12
55171;BME280;41060;47.510;8.680;2023-01-25T09:18:39;98224.03;;;5.75;49.36
55171;BME280;41060;47.510;8.680;2023-01-25T09:21:07;98129.09;;;5.22;49.37
55171;BME280;41060;47.510;8.680;2023-01-25T09:23:34;98225.19;;;5.68;49.19
55171;BME280;41060;47.510;8.680;2023-01-25T09:26:05;98170.88;;;5.28;49.86
55171;BME280;41060;47.510;8.680;2023-01-25T09:28:33;98161.03;;;5.33;49.45
55171;BME280;41060;47.510;8.680;2023-01-25T09:31:00;98221.28;;;5.78;49.53
55171;BME280;41060;47.510;8.680;2023-01-25T09:33:31;98122.53;;;5.12;49.59
55171;BME280;41060;47.510;8.680;2023-01-25T09:35:59;98224.28;;;5.69;50.04
55171;BME280;41060;47.510;8.680;2023-01-25T09:38:26;98109.53;;;5.09;49.68
55171;BME280;41060;47.510;8.680;2023-01-25T09:41:04;98221.09;;;5.83;49.72
55171;BME280;41060;47.510;8.680;2023-01-25T09:43:45;98218.53;;;6.01;49.29
55171;BME280;41060;47.510;8.680;2023-01-25T09:46:21;98183.38;;;5.84;49.62
55171;BME280;41060;47.510;8.680;2023-01-25T09:48:55;98207.56;;;5.92;48.94
55171;BME280;41060;47.510;8.680;2023-01-25T09:51:35;98100.47;;;5.16;49.58
55171;BME280;41060;47.510;8.680;2023-01-25T09:54:09;98211.22;;;5.88;49.18
55171;BME280;41060;47.510;8.680;2023-01-25T09:56:37;98184.81;;;5.71;49.04
55171;BME280;41060;47.510;8.680;2023-01-25T09:59:09;98165.56;;;5.70;49.01
55171;BME280;41060;47.510;8.680;2023-01-25T10:01:45;98211.97;;;5.91;49.40
55171;BME280;41060;47.510;8.680;2023-01-25T10:04:17;98204.53;;;6.01;49.40
55171;BME280;41060;47.510;8.680;2023-01-25T10:06:51;98027.72;;;4.77;48.99
55171;BME280;41060;47.510;8.680;2023-01-25T10:09:26;98205.22;;;5.86;49.20
55171;BME280;41060;47.510;8.680;2023-01-25T10:11:58;98185.34;;;5.79;49.09
55171;BME280;41060;47.510;8.680;2023-01-25T10:14:29;98209.00;;;5.79;49.30
55171;BME280;41060;47.510;8.680;2023-01-25T10:17:05;98164.06;;;5.64;48.83
55171;BME280;41060;47.510;8.680;2023-01-25T10:19:54;98158.66;;;5.67;49.06
55171;BME280;41060;47.510;8.680;2023-01-25T10:22:31;98202.69;;;6.03;48.87
55171;BME280;41060;47.510;8.680;2023-01-25T10:25:15;98169.56;;;5.58;49.71
55171;BME280;41060;47.510;8.680;2023-01-25T10:27:54;98192.84;;;5.88;49.31
55171;BME280;41060;47.510;8.680;2023-01-25T10:30:26;98122.97;;;5.21;49.80
55171;BME280;41060;47.510;8.680;2023-01-25T10:32:56;98186.88;;;5.84;49.44
55171;BME280;41060;47.510;8.680;2023-01-25T10:35:27;98131.34;;;5.31;49.84
55171;BME280;41060;47.510;8.680;2023-01-25T10:38:02;98128.19;;;5.23;50.26
55171;BME280;41060;47.510;8.680;2023-01-25T10:40:37;98187.22;;;5.75;49.81
55171;BME280;41060;47.510;8.680;2023-01-25T10:43:12;98196.19;;;5.71;49.73
55171;BME280;41060;47.510;8.680;2023-01-25T10:45:40;98189.28;;;5.48;50.52
55171;BME280;41060;47.510;8.680;2023-01-25T10:48:14;98193.66;;;5.27;51.51
55171;BME280;41060;47.510;8.680;2023-01-25T10:50:45;98047.50;;;4.44;51.23
55171;BME280;41060;47.510;8.680;2023-01-25T10:53:26;98184.66;;;5.33;51.10
55171;BME280;41060;47.510;8.680;2023-01-25T10:56:21;98083.63;;;4.79;51.05
55171;BME280;41060;47.510;8.680;2023-01-25T10:59:05;98170.16;;;5.45;51.23
55171;BME280;41060;47.510;8.680;2023-01-25T11:01:34;98135.25;;;5.21;51.30
55171;BME280;41060;47.510;8.680;2023-01-25T11:04:02;98164.84;;;5.46;51.10
55171;BME280;41060;47.510;8.680;2023-01-25T11:06:47;98163.00;;;5.48;51.18
55171;BME280;41060;47.510;8.680;2023-01-25T11:09:35;98163.66;;;5.53;50.66
55171;BME280;41060;47.510;8.680;2023-01-25T11:12:03;98150.78;;;5.47;51.02
55171;BME280;41060;47.510;8.680;2023-01-25T11:14:34;98160.75;;;5.39;51.46
55171;BME280;41060;47.510;8.680;2023-01-25T11:17:03;98121.69;;;5.11;51.51
55171;BME280;41060;47.510;8.680;2023-01-25T11:19:33;98135.66;;;5.12;50.94
55171;BME280;41060;47.510;8.680;2023-01-25T11:22:08;98133.94;;;5.11;50.93
55171;BME280;41060;47.510;8.680;2023-01-25T11:24:46;98146.06;;;5.35;50.88
55171;BME280;41060;47.510;8.680;2023-01-25T11:27:17;98145.31;;;5.32;50.73
55171;BME280;41060;47.510;8.680;2023-01-25T11:29:44;98154.59;;;5.20;51.04
55171;BME280;41060;47.510;8.680;2023-01-25T11:32:17;98143.28;;;5.38;50.56
55171;BME280;41060;47.510;8.680;2023-01-25T11:34:49;98138.19;;;5.55;50.34
55171;BME280;41060;47.510;8.680;2023-01-25T11:37:34;98132.13;;;5.53;50.29
55171;BME280;41060;47.510;8.680;2023-01-25T11:40:14;98126.28;;;5.47;50.69
55171;BME280;41060;47.510;8.680;2023-01-25T11:42:50;98062.34;;;5.27;50.13
55171;BME280;41060;47.510;8.680;2023-01-25T11:45:43;98121.75;;;5.71;49.81
55171;BME280;41060;47.510;8.680;2023-01-25T11:48:32;98120.50;;;5.79;49.66
55171;BME280;41060;47.510;8.680;2023-01-25T11:51:13;98116.63;;;5.47;50.46
55171;BME280;41060;47.510;8.680;2023-01-25T11:53:52;98114.59;;;5.34;51.21
55171;BME280;41060;47.510;8.680;2023-01-25T11:56:32;98110.84;;;5.39;51.25
55171;BME280;41060;47.510;8.680;2023-01-25T11:59:17;98113.00;;;5.09;51.89
55171;BME280;41060;47.510;8.680;2023-01-25T12:02:00;98102.72;;;5.25;51.87
55171;BME280;41060;47.510;8.680;2023-01-25T12:04:51;98103.88;;;4.98;52.52
55171;BME280;41060;47.510;8.680;2023-01-25T12:07:32;98094.84;;;5.05;52.52
55171;BME280;41060;47.510;8.680;2023-01-25T12:10:14;98078.50;;;4.55;52.95
55171;BME280;41060;47.510;8.680;2023-01-25T12:12:55;98096.69;;;4.81;53.60
55171;BME280;41060;47.510;8.680;2023-01-25T12:15:41;98087.69;;;4.66;53.86
55171;BME280;41060;47.510;8.680;2023-01-25T12:18:26;98081.91;;;4.78;53.84
55171;BME280;41060;47.510;8.680;2023-01-25T12:21:05;98049.03;;;4.70;53.28
55171;BME280;41060;47.510;8.680;2023-01-25T12:23:55;98078.59;;;4.75;53.38
55171;BME280;41060;47.510;8.680;2023-01-25T12:26:26;98076.56;;;4.81;53.08
55171;BME280;41060;47.510;8.680;2023-01-25T12:29:02;98043.56;;;4.54;53.61
55171;BME280;41060;47.510;8.680;2023-01-25T12:31:37;98055.53;;;4.61;53.68
55171;BME280;41060;47.510;8.680;2023-01-25T12:34:09;98064.97;;;4.65;53.71
55171;BME280;41060;47.510;8.680;2023-01-25T12:36:42;98067.50;;;4.88;53.44
55171;BME280;41060;47.510;8.680;2023-01-25T12:39:12;98053.19;;;4.75;53.24
55171;BME280;41060;47.510;8.680;2023-01-25T12:41:43;98050.28;;;5.03;52.44
55171;BME280;41060;47.510;8.680;2023-01-25T12:44:19;98020.09;;;4.51;52.73
55171;BME280;41060;47.510;8.680;2023-01-25T12:46:53;98055.53;;;4.61;53.22
55171;BME280;41060;47.510;8.680;2023-01-25T12:49:27;98045.19;;;4.78;52.83
55171;BME280;41060;47.510;8.680;2023-01-25T12:52:00;98038.72;;;4.87;52.95
55171;BME280;41060;47.510;8.680;2023-01-25T12:54:33;98030.56;;;4.93;52.35
55171;BME280;41060;47.510;8.680;2023-01-25T12:57:10;98025.47;;;5.10;51.93
55171;BME280;41060;47.510;8.680;2023-01-25T12:59:48;97947.72;;;4.67;51.68
55171;BME280;41060;47.510;8.680;2023-01-25T13:02:42;98003.03;;;5.03;51.71
55171;BME280;41060;47.510;8.680;2023-01-25T13:05:21;98025.00;;;5.01;51.85
55171;BME280;41060;47.510;8.680;2023-01-25T13:08:00;98003.19;;;4.99;51.99
55171;BME280;41060;47.510;8.680;2023-01-25T13:10:33;98018.69;;;5.25;51.41
55171;BME280;41060;47.510;8.680;2023-01-25T13:13:19;98017.84;;;5.43;50.69
55171;BME280;41060;47.510;8.680;2023-01-25T13:15:48;98013.47;;;5.44;51.00
55171;BME280;41060;47.510;8.680;2023-01-25T13:18:37;98023.25;;;5.40;51.00
55171;BME280;41060;47.510;8.680;2023-01-25T13:21:08;98007.34;;;5.43;50.97
55171;BME280;41060;47.510;8.680;2023-01-25T13:23:37;97953.88;;;4.86;51.09
55171;BME280;41060;47.510;8.680;2023-01-25T13:29:41;97995.63;;;5.32;51.05